createdAt,value
2022-10-01T00:00:18.283Z,49.59
2022-10-01T00:03:54.647Z,49.35
2022-10-01T00:07:11.142Z,49.23
2022-10-01T00:10:07.789Z,49.09
2022-10-01T00:12:23.244Z,49.04
2022-10-01T00:14:45.777Z,48.99
2022-10-01T00:18:01.867Z,48.90
2022-10-01T00:21:13.343Z,48.79
2022-10-01T00:24:08.146Z,48.84
2022-10-01T00:26:48.656Z,48.95
2022-10-01T00:30:17.621Z,48.83
2022-10-01T00:33:28.782Z,48.91
2022-10-01T00:36:46.776Z,49.02
2022-10-01T00:39:28.570Z,49.20
2022-10-01T00:41:46.421Z,49.21
2022-10-01T00:44:55.056Z,49.13
2022-10-01T00:48:25.739Z,49.31
2022-10-01T00:51:44.562Z,49.34
2022-10-01T00:54:54.792Z,49.58
2022-10-01T00:58:12.128Z,49.83
2022-10-01T01:01:41.027Z,49.85
2022-10-01T01:05:00.671Z,49.88
2022-10-01T01:08:29.481Z,49.98
2022-10-01T01:11:56.678Z,50.05
2022-10-01T01:15:44.441Z,50.15
2022-10-01T01:19:29.108Z,50.22
2022-10-01T01:22:38.591Z,50.54
2022-10-01T01:26:02.955Z,50.53
2022-10-01T01:29:30.094Z,50.60
2022-10-01T01:33:01.857Z,50.77
2022-10-01T01:36:13.175Z,50.93
2022-10-01T01:39:40.546Z,51.19
2022-10-01T01:43:08.103Z,51.48
2022-10-01T01:46:26.028Z,51.47
2022-10-01T01:49:55.175Z,51.75
2022-10-01T01:53:06.608Z,51.85
2022-10-01T02:00:09.302Z,52.16
2022-10-01T02:03:04.508Z,52.38
2022-10-01T02:06:21.756Z,52.68
2022-10-01T02:09:40.246Z,52.85
2022-10-01T02:13:06.640Z,53.01
2022-10-01T02:28:26.810Z,53.75
2022-10-01T02:35:08.175Z,54.23
2022-10-01T02:38:17.092Z,54.37
2022-10-01T02:40:43.678Z,54.64
2022-10-01T02:44:07.724Z,54.82
2022-10-01T02:47:17.412Z,54.93
2022-10-01T02:50:14.820Z,55.00
2022-10-01T02:57:34.998Z,55.52
2022-10-01T03:00:44.421Z,55.72
2022-10-01T03:03:55.234Z,55.87
2022-10-01T03:06:03.643Z,55.98
2022-10-01T03:09:12.000Z,56.14
2022-10-01T03:11:34.892Z,56.22
2022-10-01T03:14:01.356Z,56.27
2022-10-01T03:16:29.154Z,56.39
2022-10-01T03:18:34.543Z,56.45
2022-10-01T03:20:49.902Z,56.47
2022-10-01T03:22:55.610Z,56.52
2022-10-01T03:25:01.129Z,56.64
2022-10-01T03:27:09.219Z,56.72
2022-10-01T03:29:15.077Z,56.76
2022-10-01T03:31:20.251Z,56.94
2022-10-01T03:33:28.679Z,57.09
2022-10-01T03:35:37.833Z,57.08
2022-10-01T03:37:43.169Z,57.19
2022-10-01T03:39:51.492Z,57.27
2022-10-01T03:41:59.381Z,57.35
2022-10-01T04:08:11.593Z,58.50
2022-10-01T04:11:37.839Z,58.65
2022-10-01T04:14:45.896Z,58.73
2022-10-01T04:17:12.515Z,58.88
2022-10-01T04:19:35.878Z,58.99
2022-10-01T04:21:40.799Z,59.06
2022-10-01T04:23:50.706Z,59.11
2022-10-01T04:26:09.245Z,59.16
2022-10-01T04:28:35.588Z,59.33
2022-10-01T04:31:24.052Z,59.41
2022-10-01T04:33:52.362Z,59.52
2022-10-01T04:36:48.035Z,59.67
2022-10-01T04:40:03.211Z,59.78
2022-10-01T04:42:13.869Z,59.97
2022-10-01T04:44:43.435Z,60.12
2022-10-01T04:46:51.914Z,60.21
2022-10-01T04:49:00.249Z,60.36
2022-10-01T04:51:05.788Z,60.50
2022-10-01T04:53:10.934Z,60.55
2022-10-01T04:55:17.022Z,60.61
2022-10-01T04:57:42.299Z,60.76
2022-10-01T04:59:53.777Z,60.82
2022-10-01T05:02:33.413Z,60.95
2022-10-01T05:04:56.551Z,61.05
2022-10-01T05:07:28.163Z,61.09
2022-10-01T05:10:00.138Z,61.16
2022-10-01T05:12:44.819Z,61.23
2022-10-01T05:15:10.176Z,61.31
2022-10-01T05:17:18.897Z,61.40
2022-10-01T05:19:34.900Z,61.50
2022-10-01T05:21:39.821Z,61.56
2022-10-01T05:23:48.099Z,61.55
2022-10-01T05:25:52.894Z,61.60
2022-10-01T05:28:06.169Z,61.66
2022-10-01T05:30:34.476Z,61.60
2022-10-01T05:33:03.253Z,61.83
2022-10-01T05:35:18.062Z,61.89
2022-10-01T05:37:24.729Z,62.19
2022-10-01T05:39:30.819Z,62.37
2022-10-01T05:41:36.665Z,62.48
2022-10-01T05:43:45.708Z,62.66
2022-10-01T05:46:51.173Z,62.62
2022-10-01T05:49:23.981Z,62.89
2022-10-01T05:52:17.591Z,63.02
2022-10-01T05:54:59.080Z,62.98
2022-10-01T05:57:19.397Z,63.23
2022-10-01T06:00:00.930Z,63.27
2022-10-01T06:02:19.927Z,63.35
2022-10-01T06:05:06.424Z,63.43
2022-10-01T06:07:52.330Z,63.60
2022-10-01T06:10:03.059Z,63.66
2022-10-01T06:12:20.173Z,63.75
2022-10-01T06:14:28.104Z,63.97
2022-10-01T06:16:42.661Z,64.02
2022-10-01T06:19:09.686Z,64.06
2022-10-01T06:21:42.343Z,64.28
2022-10-01T06:24:43.141Z,64.31
2022-10-01T06:26:54.656Z,64.34
2022-10-01T06:29:03.951Z,64.41
2022-10-01T06:31:08.749Z,64.58
2022-10-01T06:33:18.351Z,64.63
2022-10-01T06:35:24.113Z,64.58
2022-10-01T06:37:32.702Z,64.63
2022-10-01T06:39:49.443Z,64.75
2022-10-01T06:42:07.372Z,64.90
2022-10-01T06:44:37.516Z,65.08
2022-10-01T06:47:07.515Z,65.09
2022-10-01T06:50:00.173Z,65.22
2022-10-01T06:53:02.926Z,65.26
2022-10-01T06:55:40.764Z,65.36
2022-10-01T06:58:20.287Z,65.50
2022-10-01T07:00:42.068Z,65.87
2022-10-01T07:02:50.781Z,66.04
2022-10-01T07:04:59.519Z,66.09
2022-10-01T07:07:04.472Z,66.17
2022-10-01T07:09:09.963Z,66.25
2022-10-01T07:11:24.467Z,66.45
2022-10-01T07:13:29.753Z,66.54
2022-10-01T07:15:37.888Z,66.57
2022-10-01T07:18:00.197Z,66.66
2022-10-01T07:20:06.259Z,66.72
2022-10-01T07:22:11.334Z,66.82
2022-10-01T07:24:16.878Z,66.80
2022-10-01T07:26:21.813Z,66.78
2022-10-01T07:28:28.719Z,66.88
2022-10-01T07:30:35.504Z,66.86
2022-10-01T07:32:43.978Z,66.96
2022-10-01T07:35:09.405Z,66.85
2022-10-01T07:37:15.218Z,66.93
2022-10-01T07:39:40.965Z,67.02
2022-10-01T07:41:46.117Z,67.14
2022-10-01T07:44:03.831Z,67.18
2022-10-01T07:46:08.927Z,67.30
2022-10-01T07:48:17.961Z,67.30
2022-10-01T07:50:22.822Z,67.30
2022-10-01T07:52:28.056Z,67.41
2022-10-01T07:54:33.747Z,67.49
2022-10-01T07:56:39.114Z,67.51
2022-10-01T07:58:47.138Z,67.55
2022-10-01T08:01:15.089Z,67.54
2022-10-01T08:03:44.825Z,67.68
2022-10-01T08:05:54.676Z,67.74
2022-10-01T08:08:43.674Z,67.86
2022-10-01T08:11:04.254Z,67.99
2022-10-01T08:13:17.230Z,68.24
2022-10-01T08:15:22.444Z,68.21
2022-10-01T08:18:02.002Z,68.31
2022-10-01T08:20:32.042Z,68.20
2022-10-01T08:23:02.451Z,68.20
2022-10-01T08:25:30.369Z,68.45
2022-10-01T08:27:35.570Z,68.45
2022-10-01T08:29:43.756Z,68.56
2022-10-01T08:31:49.552Z,68.65
2022-10-01T08:33:54.533Z,68.80
2022-10-01T08:36:22.586Z,68.84
2022-10-01T08:38:28.135Z,68.97
2022-10-01T08:40:41.584Z,68.97
2022-10-01T08:43:06.737Z,69.07
2022-10-01T08:45:23.100Z,69.22
2022-10-01T08:47:35.693Z,69.12
2022-10-01T08:49:59.843Z,69.31
2022-10-01T08:52:36.108Z,69.38
2022-10-01T08:54:46.900Z,69.40
2022-10-01T08:56:54.580Z,69.61
2022-10-01T08:59:04.034Z,69.60
2022-10-01T09:01:11.850Z,69.64
2022-10-01T09:03:20.126Z,69.87
2022-10-01T09:05:48.931Z,69.79
2022-10-01T09:08:15.640Z,69.75
2022-10-01T09:10:28.072Z,69.79
2022-10-01T09:13:11.801Z,69.89
2022-10-01T09:15:38.419Z,69.91
2022-10-01T09:18:22.810Z,69.89
2022-10-01T09:20:36.726Z,69.96
2022-10-01T09:22:58.520Z,70.09
2022-10-01T09:25:25.765Z,70.14
2022-10-01T09:27:32.817Z,70.22
2022-10-01T09:29:44.862Z,70.42
2022-10-01T09:31:51.868Z,70.45
2022-10-01T09:34:21.386Z,70.49
2022-10-01T09:36:38.003Z,70.54
2022-10-01T09:39:00.611Z,70.72
2022-10-01T09:41:11.112Z,70.74
2022-10-01T09:43:22.337Z,70.74
2022-10-01T09:45:51.405Z,70.72
2022-10-01T09:48:05.814Z,70.78
2022-10-01T09:50:23.065Z,70.90
2022-10-01T09:52:43.186Z,71.08
2022-10-01T09:54:59.110Z,71.13
2022-10-01T09:57:15.661Z,71.02
2022-10-01T09:59:45.103Z,71.09
2022-10-01T10:02:15.683Z,71.07
2022-10-01T10:04:24.745Z,71.22
2022-10-01T10:07:29.891Z,71.34
2022-10-01T10:10:30.669Z,71.13
2022-10-01T10:12:47.569Z,71.25
2022-10-01T10:15:02.844Z,71.38
2022-10-01T10:17:22.692Z,71.25
2022-10-01T10:19:29.785Z,71.29
2022-10-01T10:21:35.805Z,71.12
2022-10-01T10:23:59.719Z,71.30
2022-10-01T10:26:08.099Z,71.25
2022-10-01T10:28:23.960Z,71.20
2022-10-01T10:30:30.453Z,71.18
2022-10-01T10:32:36.451Z,71.38
2022-10-01T10:34:47.360Z,71.25
2022-10-01T10:37:00.014Z,71.38
2022-10-01T10:39:10.135Z,71.43
2022-10-01T10:41:19.786Z,71.35
2022-10-01T10:43:32.506Z,71.44
2022-10-01T10:45:40.208Z,71.48
2022-10-01T10:47:51.850Z,71.39
2022-10-01T10:50:05.208Z,71.43
2022-10-01T10:52:30.242Z,71.69
2022-10-01T10:54:41.890Z,71.58
2022-10-01T10:57:29.607Z,71.42
2022-10-01T10:59:35.717Z,71.66
2022-10-01T11:02:02.192Z,71.74
2022-10-01T11:04:27.615Z,71.85
2022-10-01T11:06:33.234Z,71.76
2022-10-01T11:08:40.307Z,71.99
2022-10-01T11:11:07.926Z,71.95
2022-10-01T11:13:44.049Z,72.05
2022-10-01T11:16:36.176Z,72.29
2022-10-01T11:19:18.904Z,72.33
2022-10-01T11:21:32.334Z,72.48
2022-10-01T11:23:56.740Z,72.33
2022-10-01T11:26:07.749Z,72.43
2022-10-01T11:28:32.287Z,72.64
2022-10-01T11:30:43.154Z,72.51
2022-10-01T11:32:56.349Z,72.48
2022-10-01T11:35:13.591Z,72.66
2022-10-01T11:37:36.520Z,72.50
2022-10-01T11:39:45.265Z,72.59
2022-10-01T11:41:56.062Z,72.43
2022-10-01T11:44:08.227Z,72.48
2022-10-01T11:46:27.537Z,72.36
2022-10-01T11:48:42.353Z,72.49
2022-10-01T11:50:51.879Z,72.50
2022-10-01T11:53:17.532Z,72.42
2022-10-01T11:55:47.007Z,72.62
2022-10-01T11:58:21.928Z,72.40
2022-10-01T12:00:40.965Z,72.54
2022-10-01T12:03:06.030Z,72.44
2022-10-01T12:05:33.662Z,72.54
2022-10-01T12:08:09.680Z,72.62
2022-10-01T12:10:39.651Z,72.56
2022-10-01T12:13:28.519Z,72.47
2022-10-01T12:15:55.946Z,72.66
2022-10-01T12:18:14.496Z,72.58
2022-10-01T12:20:28.639Z,72.55
2022-10-01T12:22:40.330Z,72.67
2022-10-01T12:24:46.179Z,72.72
2022-10-01T12:27:14.476Z,72.73
2022-10-01T12:29:27.613Z,73.07
2022-10-01T12:31:52.807Z,72.78
2022-10-01T12:34:22.826Z,72.96
2022-10-01T12:36:50.320Z,72.92
2022-10-01T12:39:08.949Z,72.88
2022-10-01T12:41:38.633Z,72.91
2022-10-01T12:44:11.827Z,73.00
2022-10-01T12:46:29.004Z,72.78
2022-10-01T12:48:48.931Z,72.92
2022-10-01T12:51:15.306Z,72.76
2022-10-01T12:53:46.395Z,72.74
2022-10-01T12:56:05.161Z,72.78
2022-10-01T12:59:06.802Z,73.02
2022-10-01T13:01:52.157Z,73.18
2022-10-01T13:04:08.962Z,73.23
2022-10-01T13:07:13.172Z,73.06
2022-10-01T13:09:34.694Z,73.22
2022-10-01T13:11:59.566Z,73.29
2022-10-01T13:14:08.146Z,73.37
2022-10-01T13:16:30.532Z,73.51
2022-10-01T13:18:39.731Z,73.61
2022-10-01T13:20:54.758Z,73.44
2022-10-01T13:23:13.289Z,73.46
2022-10-01T13:25:49.404Z,73.47
2022-10-01T13:28:10.882Z,73.50
2022-10-01T13:30:18.910Z,73.52
2022-10-01T13:32:33.809Z,73.51
2022-10-01T13:34:42.098Z,73.56
2022-10-01T13:36:57.445Z,73.49
2022-10-01T13:39:02.488Z,73.77
2022-10-01T13:41:23.493Z,73.54
2022-10-01T13:43:31.560Z,73.54
2022-10-01T13:45:39.720Z,73.55
2022-10-01T13:47:44.724Z,73.72
2022-10-01T13:50:04.796Z,73.55
2022-10-01T13:52:24.039Z,73.50
2022-10-01T13:54:40.228Z,73.77
2022-10-01T13:56:45.202Z,73.89
2022-10-01T13:58:53.503Z,73.70
2022-10-01T14:01:23.573Z,73.65
2022-10-01T14:03:35.115Z,73.79
2022-10-01T14:06:07.870Z,73.67
2022-10-01T14:08:50.558Z,73.79
2022-10-01T14:11:33.088Z,73.54
2022-10-01T14:14:02.245Z,73.73
2022-10-01T14:16:07.965Z,73.74
2022-10-01T14:18:18.437Z,73.58
2022-10-01T14:20:31.325Z,73.77
2022-10-01T14:22:41.864Z,73.85
2022-10-01T14:25:22.832Z,73.81
2022-10-01T14:28:00.613Z,74.13
2022-10-01T14:30:23.522Z,75.02
2022-10-01T14:32:38.528Z,74.95
2022-10-01T14:34:59.906Z,74.68
2022-10-01T14:37:08.719Z,73.77
2022-10-01T14:39:17.837Z,73.58
2022-10-01T14:41:27.339Z,73.03
2022-10-01T14:43:33.787Z,72.85
2022-10-01T14:45:38.948Z,72.60
2022-10-01T14:47:44.042Z,72.46
2022-10-01T14:49:50.289Z,73.24
2022-10-01T14:52:17.675Z,74.53
2022-10-01T14:54:23.350Z,74.84
2022-10-01T14:56:41.949Z,74.68
2022-10-01T14:58:53.268Z,73.98
2022-10-01T15:00:59.982Z,73.14
2022-10-01T15:03:18.541Z,72.15
2022-10-01T15:05:30.011Z,70.89
2022-10-01T15:07:37.308Z,70.09
2022-10-01T15:09:42.425Z,69.31
2022-10-01T15:11:51.704Z,68.43
2022-10-01T15:14:27.496Z,67.41
2022-10-01T15:16:36.862Z,66.50
2022-10-01T15:19:01.765Z,65.55
2022-10-01T15:21:08.122Z,64.88
2022-10-01T15:23:13.445Z,64.27
2022-10-01T15:25:25.356Z,63.69
2022-10-01T15:27:31.578Z,62.71
2022-10-01T15:29:39.270Z,62.09
2022-10-01T15:32:18.745Z,61.68
2022-10-01T15:34:56.421Z,60.89
2022-10-01T15:37:15.007Z,60.25
2022-10-01T15:39:48.520Z,59.60
2022-10-01T15:42:14.469Z,59.05
2022-10-01T15:44:58.325Z,58.43
2022-10-01T15:47:52.078Z,57.93
2022-10-01T15:50:36.994Z,57.85
2022-10-01T15:53:18.648Z,57.13
2022-10-01T15:55:40.070Z,56.49
2022-10-01T15:57:45.952Z,56.37
2022-10-01T16:00:09.313Z,56.31
2022-10-01T16:02:37.058Z,56.04
2022-10-01T16:04:42.924Z,55.74
2022-10-01T16:07:12.899Z,55.43
2022-10-01T16:10:21.875Z,54.74
2022-10-01T16:12:48.076Z,54.81
2022-10-01T16:15:18.818Z,54.66
2022-10-01T16:18:16.807Z,54.41
2022-10-01T16:21:39.193Z,53.70
2022-10-01T16:24:47.650Z,52.87
2022-10-01T16:27:52.730Z,53.02
2022-10-01T16:30:28.505Z,53.08
2022-10-01T16:33:16.474Z,53.39
2022-10-01T16:36:33.032Z,53.12
2022-10-01T16:39:31.948Z,52.34
2022-10-01T16:42:22.387Z,51.92
2022-10-01T16:45:08.865Z,51.61
2022-10-01T16:48:17.752Z,50.94
2022-10-01T16:51:13.442Z,50.90
2022-10-01T16:54:08.620Z,50.70
2022-10-01T16:57:26.030Z,50.62
2022-10-01T17:00:51.767Z,49.99
2022-10-01T17:03:58.980Z,48.76
2022-10-01T17:06:32.701Z,48.22
2022-10-01T17:09:32.146Z,47.82
2022-10-01T17:12:46.234Z,46.80
2022-10-01T17:16:14.638Z,45.59
2022-10-01T17:19:29.077Z,45.12
2022-10-01T17:22:39.825Z,44.77
2022-10-01T17:25:08.839Z,43.88
2022-10-01T17:27:23.402Z,43.41
2022-10-01T17:30:13.854Z,43.12
2022-10-01T17:33:09.825Z,42.54
2022-10-01T17:35:25.282Z,42.15
2022-10-01T17:38:32.454Z,41.37
2022-10-01T17:40:59.567Z,40.86
2022-10-01T17:43:12.994Z,40.72
2022-10-01T17:46:02.203Z,40.67
2022-10-01T17:49:21.781Z,40.94
2022-10-01T17:52:40.955Z,40.63
2022-10-01T17:55:35.962Z,40.23
2022-10-01T17:58:44.985Z,38.00
2022-10-01T18:02:36.432Z,37.03
2022-10-01T18:05:25.998Z,35.03
2022-10-01T18:08:54.756Z,35.70
2022-10-01T18:11:41.537Z,36.38
2022-10-01T18:14:53.023Z,35.77
2022-10-01T18:17:52.118Z,35.58
2022-10-01T18:21:08.689Z,32.74
2022-10-01T18:24:04.787Z,32.05
2022-10-01T18:27:19.135Z,33.76
2022-10-01T18:30:10.644Z,31.85
2022-10-01T18:33:25.584Z,31.68
2022-10-01T18:36:50.614Z,31.74
2022-10-01T18:39:37.101Z,32.80
2022-10-01T18:42:52.805Z,31.54
2022-10-01T18:46:03.829Z,32.47
2022-10-01T18:49:05.692Z,32.62
2022-10-01T18:52:42.938Z,31.10
2022-10-01T18:56:14.192Z,30.73
2022-10-01T18:59:51.129Z,31.64
2022-10-01T19:02:50.892Z,31.26
2022-10-01T19:05:35.656Z,31.19
2022-10-01T19:08:08.944Z,31.48
2022-10-01T19:11:32.788Z,30.37
2022-10-01T19:14:46.377Z,30.30
2022-10-01T19:18:00.387Z,29.64
2022-10-01T19:21:48.157Z,28.71
2022-10-01T19:24:41.137Z,29.71
2022-10-01T19:27:55.533Z,29.73
2022-10-01T19:30:49.324Z,29.90
2022-10-01T19:34:07.263Z,28.40
2022-10-01T19:37:18.277Z,29.00
2022-10-01T19:40:27.191Z,29.78
2022-10-01T19:43:32.525Z,29.20
2022-10-01T19:47:03.102Z,29.27
2022-10-01T19:49:45.355Z,29.52
2022-10-01T19:53:13.875Z,29.36
2022-10-01T19:56:13.855Z,29.10
2022-10-01T19:59:19.514Z,29.25
2022-10-01T20:02:21.115Z,28.93
2022-10-01T20:05:00.208Z,28.25
2022-10-01T20:07:55.119Z,27.90
2022-10-01T20:11:19.097Z,28.71
2022-10-01T20:14:08.573Z,29.14
2022-10-01T20:16:55.718Z,28.31
2022-10-01T20:20:26.812Z,26.94
2022-10-01T20:24:00.433Z,27.37
2022-10-01T20:27:29.136Z,27.54
2022-10-01T20:31:03.692Z,27.34
2022-10-01T20:34:57.029Z,28.45
2022-10-01T20:38:00.858Z,28.10
2022-10-01T20:40:56.290Z,28.02
2022-10-01T20:44:28.843Z,27.70
2022-10-01T20:48:02.657Z,27.71
2022-10-01T20:50:48.818Z,28.34
2022-10-01T20:53:54.528Z,27.50
2022-10-01T20:57:10.138Z,27.69
2022-10-01T21:00:39.926Z,27.62
2022-10-01T21:03:46.493Z,26.84
2022-10-01T21:07:25.049Z,27.15
2022-10-01T21:10:39.399Z,27.36
2022-10-01T21:13:53.297Z,27.35
2022-10-01T21:17:06.022Z,27.23
2022-10-01T21:20:16.923Z,26.78
2022-10-01T21:23:23.294Z,27.21
2022-10-01T21:26:39.977Z,27.25
2022-10-01T21:29:40.524Z,26.95
2022-10-01T21:32:45.025Z,26.82
2022-10-01T21:35:55.092Z,26.46
2022-10-01T21:39:16.842Z,27.08
2022-10-01T21:42:52.046Z,27.40
2022-10-01T21:46:21.191Z,27.26
2022-10-01T21:49:36.223Z,27.24
2022-10-01T21:53:37.803Z,28.03
2022-10-01T21:56:29.164Z,27.40
2022-10-01T22:00:09.480Z,27.20
2022-10-01T22:03:36.876Z,26.62
2022-10-01T22:06:40.174Z,27.22
2022-10-01T22:10:15.252Z,26.83
2022-10-01T22:13:31.278Z,28.04
2022-10-01T22:16:46.641Z,28.17
2022-10-01T22:19:40.693Z,27.85
2022-10-01T22:22:52.359Z,27.92
2022-10-01T22:26:03.017Z,28.26
2022-10-01T22:29:22.702Z,28.25
2022-10-01T22:32:40.910Z,28.31
2022-10-01T22:35:19.671Z,28.63
2022-10-01T22:37:40.579Z,28.51
2022-10-01T22:40:49.667Z,28.44
2022-10-01T22:44:09.260Z,28.38
2022-10-01T22:47:32.337Z,28.55
2022-10-01T22:50:40.152Z,28.52
2022-10-01T22:54:03.327Z,28.45
2022-10-01T22:56:58.970Z,28.62
2022-10-01T23:00:37.541Z,28.68
2022-10-01T23:03:32.699Z,28.70
2022-10-01T23:06:36.597Z,28.46
2022-10-01T23:09:47.658Z,28.68
2022-10-01T23:13:12.942Z,29.21
2022-10-01T23:16:17.054Z,29.31
2022-10-01T23:19:52.336Z,29.56
2022-10-01T23:23:00.361Z,29.53
2022-10-01T23:25:51.131Z,29.50
2022-10-01T23:28:37.126Z,29.35
2022-10-01T23:31:22.783Z,29.54
2022-10-01T23:34:46.615Z,29.28
2022-10-01T23:38:04.535Z,29.65
2022-10-01T23:41:22.282Z,30.08
2022-10-01T23:44:29.501Z,29.67
2022-10-01T23:47:25.066Z,29.84
2022-10-01T23:50:36.334Z,29.50
2022-10-01T23:53:45.310Z,29.72
2022-10-01T23:57:10.002Z,30.10
